createdAt,value
2018-07-12T00:00:29.193Z,80.6
2018-07-12T00:01:29.178Z,80.89
2018-07-12T00:02:28.922Z,80.76
2018-07-12T00:03:29.171Z,80.79
2018-07-12T00:04:29.173Z,80.37
2018-07-12T00:05:29.159Z,81.13
2018-07-12T00:06:28.904Z,81.13
2018-07-12T00:07:29.153Z,81.13
2018-07-12T00:08:29.146Z,80.85
2018-07-12T00:09:29.145Z,80.94
2018-07-12T00:10:29.187Z,80.66
2018-07-12T00:11:29.132Z,80.85
2018-07-12T00:12:29.127Z,81.62
2018-07-12T00:13:28.870Z,79.89
2018-07-12T00:14:29.117Z,80.76
2018-07-12T00:15:29.113Z,79.89
2018-07-12T00:16:29.111Z,79.89
2018-07-12T00:17:29.110Z,79.8
2018-07-12T00:18:29.099Z,80.08
2018-07-12T00:19:28.841Z,79.8
2018-07-12T00:20:29.088Z,79.7
2018-07-12T00:21:29.092Z,79.89
2018-07-12T00:22:29.080Z,79.13
2018-07-12T00:23:29.073Z,78.84
2018-07-12T00:24:28.818Z,78.84
2018-07-12T00:25:29.074Z,78.84
2018-07-12T00:26:29.060Z,78.55
2018-07-12T00:27:28.803Z,78.64
2018-07-12T00:28:29.051Z,78.84
2018-07-12T00:29:28.796Z,78.59
2018-07-12T00:30:29.041Z,78.74
2018-07-12T00:31:29.040Z,78.88
2018-07-12T00:32:29.032Z,78.78
2018-07-12T00:33:29.031Z,78.74
2018-07-12T00:34:29.027Z,78.69
2018-07-12T00:35:29.024Z,78.88
2018-07-12T00:36:29.014Z,78.88
2018-07-12T00:37:29.009Z,78.88
2018-07-12T00:38:29.005Z,78.59
2018-07-12T00:39:28.748Z,78.49
2018-07-12T00:40:29.000Z,78.55
2018-07-12T00:41:28.992Z,78.78
2018-07-12T00:42:28.734Z,78.78
2018-07-12T00:43:28.985Z,78.49
2018-07-12T00:44:28.982Z,78.78
2018-07-12T00:45:28.725Z,78.45
2018-07-12T00:46:28.968Z,78.69
2018-07-12T00:47:28.964Z,78.74
2018-07-12T00:48:28.710Z,78.49
2018-07-12T00:49:28.717Z,78.74
2018-07-12T00:50:28.958Z,78.45
2018-07-12T00:51:28.950Z,78.55
2018-07-12T00:52:28.942Z,78.64
2018-07-12T00:53:28.684Z,78.45
2018-07-12T00:54:28.935Z,78.69
2018-07-12T00:55:28.934Z,78.74
2018-07-12T00:56:28.929Z,78.45
2018-07-12T00:57:28.926Z,78.78
2018-07-12T00:58:28.912Z,78.78
2018-07-12T00:59:28.656Z,78.36
2018-07-12T01:00:28.904Z,78.69
2018-07-12T01:01:29.505Z,78.74
2018-07-12T01:02:28.894Z,78.84
2018-07-12T01:03:28.889Z,78.45
2018-07-12T01:04:28.888Z,78.49
2018-07-12T01:05:28.896Z,78.27
2018-07-12T01:06:28.876Z,78.45
2018-07-12T01:07:28.871Z,78.45
2018-07-12T01:08:28.880Z,78.45
2018-07-12T01:09:28.870Z,78.55
2018-07-12T01:10:28.866Z,78.64
2018-07-12T01:11:28.863Z,78.45
2018-07-12T01:12:28.854Z,78.27
2018-07-12T01:13:28.848Z,78.45
2018-07-12T01:14:28.585Z,78.74
2018-07-12T01:15:28.840Z,78.45
2018-07-12T01:16:28.830Z,78.64
2018-07-12T01:17:41.556Z,78.84
2018-07-12T01:18:28.820Z,78.45
2018-07-12T01:19:28.816Z,78.74
2018-07-12T01:20:28.815Z,78.45
2018-07-12T01:21:28.807Z,78.74
2018-07-12T01:22:28.809Z,78.45
2018-07-12T01:23:28.801Z,78.64
2018-07-12T01:24:28.541Z,78.74
2018-07-12T01:25:28.787Z,78.84
2018-07-12T01:26:28.784Z,78.84
2018-07-12T01:27:28.780Z,78.74
2018-07-12T01:28:28.772Z,78.64
2018-07-12T01:29:28.771Z,78.88
2018-07-12T01:30:28.764Z,78.69
2018-07-12T01:31:28.763Z,78.88
2018-07-12T01:32:28.755Z,78.88
2018-07-12T01:33:28.754Z,78.97
2018-07-12T01:34:28.494Z,78.88
2018-07-12T01:35:28.741Z,78.78
2018-07-12T01:36:28.736Z,78.78
2018-07-12T01:37:28.734Z,78.88
2018-07-12T01:38:28.727Z,78.69
2018-07-12T01:39:28.471Z,78.78
2018-07-12T01:40:28.731Z,78.74
2018-07-12T01:41:28.713Z,78.78
2018-07-12T01:42:28.714Z,78.59
2018-07-12T01:43:28.705Z,78.84
2018-07-12T01:44:28.699Z,78.49
2018-07-12T01:45:28.694Z,78.59
2018-07-12T01:46:28.689Z,78.69
2018-07-12T01:47:28.691Z,78.64
2018-07-12T01:48:28.686Z,78.59
2018-07-12T01:49:28.425Z,78.84
2018-07-12T01:50:28.673Z,78.84
2018-07-12T01:51:28.415Z,78.88
2018-07-12T01:52:28.661Z,78.69
2018-07-12T01:53:28.657Z,78.69
2018-07-12T01:54:28.656Z,78.69
2018-07-12T01:55:28.647Z,78.88
2018-07-12T01:56:28.642Z,78.78
2018-07-12T01:57:28.639Z,78.88
2018-07-12T01:58:28.633Z,78.78
2018-07-12T01:59:28.628Z,78.88
2018-07-12T02:00:28.700Z,78.78
2018-07-12T02:01:28.620Z,78.88
2018-07-12T02:02:28.616Z,78.49
2018-07-12T02:03:28.613Z,78.4
2018-07-12T02:04:28.354Z,78.78
2018-07-12T02:05:28.600Z,78.69
2018-07-12T02:06:28.596Z,78.88
2018-07-12T02:07:28.591Z,79.36
2018-07-12T02:08:28.588Z,78.69
2018-07-12T02:09:28.334Z,78.78
2018-07-12T02:10:28.577Z,79.16
2018-07-12T02:11:28.572Z,79.36
2018-07-12T02:12:28.567Z,78.88
2018-07-12T02:13:28.564Z,78.78
2018-07-12T02:14:28.307Z,78.78
2018-07-12T02:15:28.554Z,78.88
2018-07-12T02:16:28.549Z,78.78
2018-07-12T02:17:28.544Z,78.88
2018-07-12T02:18:28.546Z,78.69
2018-07-12T02:19:28.535Z,78.88
2018-07-12T02:20:28.541Z,79.07
2018-07-12T02:21:28.529Z,78.78
2018-07-12T02:22:28.522Z,79.07
2018-07-12T02:23:28.524Z,79.36
2018-07-12T02:24:28.260Z,79.26
2018-07-12T02:25:28.507Z,79.16
2018-07-12T02:26:28.504Z,79.36
2018-07-12T02:27:28.505Z,79.45
2018-07-12T02:28:28.494Z,79.45
2018-07-12T02:29:28.241Z,79.26
2018-07-12T02:30:28.488Z,78.78
2018-07-12T02:31:28.481Z,78.78
2018-07-12T02:32:28.478Z,79.16
2018-07-12T02:33:28.473Z,78.97
2018-07-12T02:34:28.470Z,78.97
2018-07-12T02:35:28.462Z,78.88
2018-07-12T02:36:28.457Z,78.88
2018-07-12T02:37:28.458Z,78.78
2018-07-12T02:38:28.449Z,78.78
2018-07-12T02:39:28.192Z,79.16
2018-07-12T02:40:28.443Z,79.36
2018-07-12T02:41:28.455Z,78.97
2018-07-12T02:42:28.179Z,78.4
2018-07-12T02:43:28.426Z,79.16
2018-07-12T02:44:28.423Z,79.16
2018-07-12T02:45:28.417Z,79.16
2018-07-12T02:46:28.414Z,79.07
2018-07-12T02:47:28.409Z,79.16
2018-07-12T02:48:28.513Z,78.78
2018-07-12T02:49:28.400Z,78.69
2018-07-12T02:50:28.401Z,78.97
2018-07-12T02:51:28.391Z,79.07
2018-07-12T02:52:28.388Z,78.69
2018-07-12T02:53:28.381Z,79.16
2018-07-12T02:54:28.128Z,79.16
2018-07-12T02:55:28.372Z,79.07
2018-07-12T02:56:28.369Z,79.16
2018-07-12T02:57:28.113Z,78.97
2018-07-12T02:58:28.359Z,78.27
2018-07-12T02:59:28.368Z,78.93
2018-07-12T03:00:28.356Z,78.93
2018-07-12T03:01:28.342Z,78.74
2018-07-12T03:02:28.343Z,79.13
2018-07-12T03:03:28.333Z,78.84
2018-07-12T03:04:28.331Z,79.13
2018-07-12T03:05:28.329Z,78.84
2018-07-12T03:06:28.323Z,78.93
2018-07-12T03:07:28.062Z,78.84
2018-07-12T03:08:28.308Z,78.74
2018-07-12T03:09:28.305Z,78.74
2018-07-12T03:10:28.298Z,79.03
2018-07-12T03:11:28.300Z,79.13
2018-07-12T03:12:28.290Z,78.17
2018-07-12T03:13:28.287Z,79.41
2018-07-12T03:14:28.281Z,79.03
2018-07-12T03:15:28.280Z,79.13
2018-07-12T03:16:28.271Z,79.32
2018-07-12T03:17:28.266Z,79.13
2018-07-12T03:18:28.258Z,79.13
2018-07-12T03:19:28.267Z,79.13
2018-07-12T03:20:28.253Z,79.22
2018-07-12T03:21:28.248Z,78.93
2018-07-12T03:22:28.240Z,79.22
2018-07-12T03:23:28.239Z,79.22
2018-07-12T03:24:27.980Z,78.93
2018-07-12T03:25:28.225Z,79.22
2018-07-12T03:26:28.221Z,79.03
2018-07-12T03:27:28.215Z,78.84
2018-07-12T03:28:28.213Z,79.51
2018-07-12T03:29:27.955Z,79.41
2018-07-12T03:30:28.203Z,79.7
2018-07-12T03:31:28.204Z,79.22
2018-07-12T03:32:28.193Z,79.22
2018-07-12T03:33:28.187Z,78.93
2018-07-12T03:34:27.929Z,79.6
2018-07-12T03:35:28.178Z,79.66
2018-07-12T03:36:28.171Z,78.8
2018-07-12T03:37:28.174Z,79.7
2018-07-12T03:38:27.910Z,79.28
2018-07-12T03:39:28.157Z,79.37
2018-07-12T03:40:28.280Z,79.51
2018-07-12T03:41:28.149Z,79.18
2018-07-12T03:42:28.142Z,79.22
2018-07-12T03:43:28.137Z,79.18
2018-07-12T03:44:27.879Z,79.41
2018-07-12T03:45:28.131Z,79.18
2018-07-12T03:46:28.122Z,79.41
2018-07-12T03:47:28.116Z,79.28
2018-07-12T03:48:28.112Z,78.99
2018-07-12T03:49:28.106Z,79.41
2018-07-12T03:50:28.102Z,79.37
2018-07-12T03:51:28.097Z,79.6
2018-07-12T03:52:28.092Z,78.8
2018-07-12T03:53:28.087Z,79.51
2018-07-12T03:54:28.083Z,79.37
2018-07-12T03:55:28.076Z,78.8
2018-07-12T03:56:28.072Z,79.47
2018-07-12T03:57:28.071Z,79.22
2018-07-12T03:58:28.064Z,79.18
2018-07-12T03:59:27.805Z,79.08
2018-07-12T04:00:28.060Z,79.41
2018-07-12T04:01:28.048Z,79.57
2018-07-12T04:02:28.043Z,79.51
2018-07-12T04:03:28.049Z,78.93
2018-07-12T04:04:28.039Z,79.22
2018-07-12T04:05:28.032Z,78.74
2018-07-12T04:06:28.026Z,79.32
2018-07-12T04:07:28.017Z,79.41
2018-07-12T04:08:27.762Z,79.6
2018-07-12T04:09:27.754Z,79.6
2018-07-12T04:10:28.003Z,79.7
2018-07-12T04:11:27.745Z,79.41
2018-07-12T04:12:27.991Z,79.03
2018-07-12T04:13:27.987Z,79.13
2018-07-12T04:14:27.983Z,78.74
2018-07-12T04:15:27.980Z,79.22
2018-07-12T04:16:27.972Z,79.03
2018-07-12T04:17:27.968Z,78.84
2018-07-12T04:18:27.971Z,78.93
2018-07-12T04:19:27.705Z,79.13
2018-07-12T04:20:27.952Z,78.64
2018-07-12T04:21:27.947Z,79.41
2018-07-12T04:22:27.692Z,78.93
2018-07-12T04:23:27.938Z,79.18
2018-07-12T04:24:27.680Z,79.22
2018-07-12T04:25:27.932Z,78.61
2018-07-12T04:26:27.675Z,78.84
2018-07-12T04:27:27.924Z,79.22
2018-07-12T04:28:27.915Z,78.93
2018-07-12T04:29:27.913Z,79.03
2018-07-12T04:30:27.903Z,78.93
2018-07-12T04:31:27.901Z,79.03
2018-07-12T04:32:27.896Z,79.13
2018-07-12T04:33:27.895Z,79.41
2018-07-12T04:34:27.885Z,79.41
2018-07-12T04:35:27.880Z,79.22
2018-07-12T04:36:27.873Z,79.51
2018-07-12T04:37:27.872Z,79.32
2018-07-12T04:38:27.862Z,79.13
2018-07-12T04:39:27.607Z,79.41
2018-07-12T04:40:27.857Z,79.41
2018-07-12T04:41:27.849Z,79.8
2018-07-12T04:42:27.848Z,79.51
2018-07-12T04:43:27.839Z,79.41
2018-07-12T04:44:27.583Z,79.03
2018-07-12T04:45:27.832Z,78.84
2018-07-12T04:46:27.827Z,78.84
2018-07-12T04:47:27.819Z,78.93
2018-07-12T04:48:27.817Z,79.03
2018-07-12T04:49:27.809Z,79.22
2018-07-12T04:50:27.805Z,78.64
2018-07-12T04:51:27.800Z,78.93
2018-07-12T04:52:27.800Z,79.22
2018-07-12T04:53:27.789Z,79.32
2018-07-12T04:54:27.533Z,79.41
2018-07-12T04:55:27.780Z,79.41
2018-07-12T04:56:27.778Z,79.7
2018-07-12T04:57:27.518Z,79.51
2018-07-12T04:58:27.807Z,79.51
2018-07-12T04:59:27.761Z,79.6
2018-07-12T05:00:27.755Z,79.13
2018-07-12T05:01:27.751Z,78.84
2018-07-12T05:02:27.758Z,78.84
2018-07-12T05:03:27.766Z,78.74
2018-07-12T05:04:27.748Z,79.13
2018-07-12T05:05:27.740Z,79.03
2018-07-12T05:06:27.779Z,79.13
2018-07-12T05:07:27.728Z,79.6
2018-07-12T05:08:27.717Z,79.51
2018-07-12T05:09:27.712Z,79.51
2018-07-12T05:10:27.753Z,79.89
2018-07-12T05:11:27.704Z,79.32
2018-07-12T05:12:27.698Z,79.6
2018-07-12T05:13:27.693Z,79.51
2018-07-12T05:14:27.689Z,79.41
2018-07-12T05:15:27.689Z,79.7
2018-07-12T05:16:27.678Z,79.51
2018-07-12T05:17:27.682Z,79.6
2018-07-12T05:18:27.670Z,79.6
2018-07-12T05:19:27.412Z,79.51
2018-07-12T05:20:27.658Z,79.41
2018-07-12T05:21:27.657Z,79.41
2018-07-12T05:22:27.647Z,79.32
2018-07-12T05:23:27.650Z,79.6
2018-07-12T05:24:27.640Z,79.41
2018-07-12T05:25:27.639Z,79.57
2018-07-12T05:26:27.634Z,79.37
2018-07-12T05:27:27.625Z,79.7
2018-07-12T05:28:27.367Z,79.66
2018-07-12T05:29:27.614Z,79.66
2018-07-12T05:30:27.609Z,79.37
2018-07-12T05:31:27.603Z,79.57
2018-07-12T05:32:27.600Z,79.66
2018-07-12T05:33:27.595Z,79.66
2018-07-12T05:34:27.588Z,79.57
2018-07-12T05:35:27.584Z,79.85
2018-07-12T05:36:27.579Z,80.14
2018-07-12T05:37:27.572Z,79.66
2018-07-12T05:38:27.567Z,79.85
2018-07-12T05:39:27.739Z,80.14
2018-07-12T05:40:27.307Z,80.04
2018-07-12T05:41:27.551Z,79.85
2018-07-12T05:42:27.296Z,79.95
2018-07-12T05:43:27.543Z,80.04
2018-07-12T05:44:27.289Z,79.75
2018-07-12T05:45:27.535Z,79.66
2018-07-12T05:46:27.528Z,79.66
2018-07-12T05:47:27.525Z,79.66
2018-07-12T05:48:27.517Z,79.85
2018-07-12T05:49:27.530Z,79.91
2018-07-12T05:50:27.507Z,80.04
2018-07-12T05:51:27.502Z,80.62
2018-07-12T05:52:27.498Z,80.52
2018-07-12T05:53:27.492Z,81.1
2018-07-12T05:54:27.493Z,80.43
2018-07-12T05:55:27.483Z,81.29
2018-07-12T05:56:27.477Z,80.62
2018-07-12T05:57:27.612Z,80.43
2018-07-12T05:58:27.466Z,80.24
2018-07-12T05:59:27.207Z,80.43
2018-07-12T06:00:27.203Z,80.43
2018-07-12T06:01:27.218Z,80.52
2018-07-12T06:02:27.450Z,80.43
2018-07-12T06:03:27.443Z,80.24
2018-07-12T06:04:27.441Z,80.43
2018-07-12T06:05:27.430Z,80.43
2018-07-12T06:06:27.424Z,80.62
2018-07-12T06:07:27.454Z,80.62
2018-07-12T06:08:27.415Z,80.62
2018-07-12T06:09:27.409Z,81
2018-07-12T06:10:27.424Z,80.81
2018-07-12T06:11:27.402Z,80.9
2018-07-12T06:12:27.397Z,80.71
2018-07-12T06:13:27.149Z,81.1
2018-07-12T06:14:27.131Z,81.29
2018-07-12T06:15:27.389Z,81.38
2018-07-12T06:16:27.375Z,82.63
2018-07-12T06:17:27.368Z,83.2
2018-07-12T06:18:27.416Z,83.11
2018-07-12T06:19:27.109Z,83.2
2018-07-12T06:20:27.353Z,83.44
2018-07-12T06:21:27.346Z,83.2
2018-07-12T06:22:27.350Z,82.96
2018-07-12T06:23:27.337Z,83.34
2018-07-12T06:24:27.080Z,83.44
2018-07-12T06:25:27.075Z,84.3
2018-07-12T06:26:27.322Z,83.92
2018-07-12T06:27:27.320Z,84.44
2018-07-12T06:28:27.312Z,84.53
2018-07-12T06:29:27.310Z,85.01
2018-07-12T06:30:27.050Z,85.53
2018-07-12T06:31:27.046Z,86.21
2018-07-12T06:32:27.293Z,86.3
2018-07-12T06:33:27.292Z,86.3
2018-07-12T06:34:27.032Z,86.72
2018-07-12T06:35:27.284Z,87.21
2018-07-12T06:36:27.024Z,87.4
2018-07-12T06:37:27.279Z,87.63
2018-07-12T06:38:27.271Z,88.31
2018-07-12T06:39:27.264Z,88.06
2018-07-12T06:40:27.260Z,87.58
2018-07-12T06:41:27.276Z,85.42
2018-07-12T06:42:27.256Z,84.27
2018-07-12T06:43:27.251Z,83.6
2018-07-12T06:44:26.996Z,83.74
2018-07-12T06:45:27.247Z,83.54
2018-07-12T06:46:27.291Z,83.78
2018-07-12T06:47:27.243Z,83.73
2018-07-12T06:48:27.253Z,83.25
2018-07-12T06:49:26.989Z,80.98
2018-07-12T06:50:27.243Z,80.4
2018-07-12T06:51:27.238Z,78.58
2018-07-12T06:52:26.987Z,77.71
2018-07-12T06:53:27.247Z,77.33
2018-07-12T06:54:26.985Z,77.71
2018-07-12T06:55:27.241Z,77.36
2018-07-12T06:56:27.242Z,76.98
2018-07-12T06:57:27.241Z,77.46
2018-07-12T06:58:27.250Z,76.98
2018-07-12T06:59:27.241Z,76.73
2018-07-12T07:00:27.247Z,77.21
2018-07-12T07:01:27.246Z,76.76
2018-07-12T07:02:27.252Z,76.57
2018-07-12T07:03:27.246Z,77.15
2018-07-12T07:04:27.253Z,78.69
2018-07-12T07:05:27.253Z,80.33
2018-07-12T07:06:27.293Z,79.56
2018-07-12T07:07:27.248Z,78.11
2018-07-12T07:08:27.246Z,77.73
2018-07-12T07:09:27.249Z,78.88
2018-07-12T07:10:26.998Z,79.17
2018-07-12T07:11:27.309Z,80.18
2018-07-12T07:12:26.997Z,79.69
2018-07-12T07:13:27.265Z,80.85
2018-07-12T07:14:27.251Z,80.46
2018-07-12T07:15:27.254Z,80.37
2018-07-12T07:16:27.252Z,80.18
2018-07-12T07:17:27.252Z,81.14
2018-07-12T07:18:27.006Z,80.56
2018-07-12T07:19:27.255Z,82.39
2018-07-12T07:20:27.004Z,83.45
2018-07-12T07:21:27.258Z,83.16
2018-07-12T07:22:27.258Z,82.59
2018-07-12T07:23:27.258Z,82.87
2018-07-12T07:24:27.306Z,80.27
2018-07-12T07:25:27.265Z,78.73
2018-07-12T07:26:27.447Z,77.71
2018-07-12T07:27:27.013Z,77.94
2018-07-12T07:28:27.280Z,76.82
2018-07-12T07:29:27.270Z,81.4
2018-07-12T07:30:27.274Z,83.42
2018-07-12T07:31:27.282Z,84.48
2018-07-12T07:32:27.394Z,84.39
2018-07-12T07:33:27.381Z,87.53
2018-07-12T07:34:27.280Z,85.89
2018-07-12T07:35:27.283Z,85.6
2018-07-12T07:36:27.282Z,86.62
2018-07-12T07:37:27.301Z,85.17
2018-07-12T07:38:27.288Z,84.79
2018-07-12T07:39:27.301Z,84.41
2018-07-12T07:40:27.289Z,85.6
2018-07-12T07:41:27.291Z,84.41
2018-07-12T07:42:27.293Z,81.74
2018-07-12T07:43:27.314Z,84.64
2018-07-12T07:44:27.334Z,83.77
2018-07-12T07:45:27.301Z,81.35
2018-07-12T07:46:27.308Z,82.17
2018-07-12T07:47:27.313Z,83.47
2018-07-12T07:48:27.308Z,85.3
2018-07-12T07:49:27.460Z,85.78
2018-07-12T07:50:27.067Z,85.98
2018-07-12T07:51:27.065Z,85.98
2018-07-12T07:52:27.319Z,86.71
2018-07-12T07:53:27.323Z,88.93
2018-07-12T07:54:27.115Z,87.38
2018-07-12T07:55:27.326Z,90.09
2018-07-12T07:56:27.336Z,88.21
2018-07-12T07:57:27.335Z,88.02
2018-07-12T07:58:27.335Z,88.75
2018-07-12T07:59:27.342Z,88.55
2018-07-12T08:00:27.339Z,89.28
2018-07-12T08:01:27.367Z,87.93
2018-07-12T08:02:27.087Z,87.83
2018-07-12T08:03:27.183Z,88.02
2018-07-12T08:04:27.090Z,86.68
2018-07-12T08:05:27.341Z,88.7
2018-07-12T08:06:27.091Z,86.48
2018-07-12T08:07:27.356Z,87.26
2018-07-12T08:08:27.347Z,87.26
2018-07-12T08:09:27.108Z,87.06
2018-07-12T08:10:27.374Z,86.96
2018-07-12T08:11:27.378Z,86.87
2018-07-12T08:12:27.365Z,86.77
2018-07-12T08:13:27.349Z,87.26
2018-07-12T08:14:27.355Z,86.68
2018-07-12T08:15:27.365Z,86.29
2018-07-12T08:16:27.094Z,86.19
2018-07-12T08:17:27.347Z,86.58
2018-07-12T08:18:27.097Z,86.96
2018-07-12T08:19:27.367Z,87.06
2018-07-12T08:20:27.352Z,87.64
2018-07-12T08:21:27.345Z,87.5
2018-07-12T08:22:27.095Z,87.21
2018-07-12T08:23:27.406Z,87.21
2018-07-12T08:24:27.347Z,86.92
2018-07-12T08:25:27.349Z,86.59
2018-07-12T08:26:27.091Z,86.49
2018-07-12T08:27:27.350Z,86.11
2018-07-12T08:28:27.340Z,86.3
2018-07-12T08:29:27.341Z,86.65
2018-07-12T08:30:27.341Z,86.35
2018-07-12T08:31:27.343Z,86.51
2018-07-12T08:32:27.082Z,87.18
2018-07-12T08:33:27.573Z,86.56
2018-07-12T08:34:27.078Z,86.08
2018-07-12T08:35:27.341Z,86.08
2018-07-12T08:36:27.077Z,85.78
2018-07-12T08:37:27.328Z,85.55
2018-07-12T08:38:27.335Z,84.78
2018-07-12T08:39:27.074Z,84.01
2018-07-12T08:40:27.438Z,83.83
2018-07-12T08:41:27.320Z,83.34
2018-07-12T08:42:27.377Z,83.01
2018-07-12T08:43:27.061Z,82.82
2018-07-12T08:44:27.315Z,82.63
2018-07-12T08:45:27.308Z,82.15
2018-07-12T08:46:27.307Z,81.09
2018-07-12T08:47:27.303Z,80.9
2018-07-12T08:48:27.431Z,80.61
2018-07-12T08:49:27.045Z,80.13
2018-07-12T08:50:27.301Z,80.51
2018-07-12T08:51:27.298Z,80.13
2018-07-12T08:52:27.293Z,79.94
2018-07-12T08:53:27.287Z,80.13
2018-07-12T08:54:27.032Z,80.22
2018-07-12T08:55:27.286Z,80.22
2018-07-12T08:56:27.281Z,79.55
2018-07-12T08:57:27.025Z,78.88
2018-07-12T08:58:27.283Z,79.36
2018-07-12T08:59:27.275Z,78.78
2018-07-12T09:00:27.276Z,79.3
2018-07-12T09:01:27.031Z,78.92
2018-07-12T09:02:27.265Z,78.98
2018-07-12T09:03:27.263Z,79.27
2018-07-12T09:04:27.014Z,78.98
2018-07-12T09:05:27.257Z,79.02
2018-07-12T09:06:27.262Z,78.92
2018-07-12T09:07:27.268Z,78.53
2018-07-12T09:08:27.251Z,78.88
2018-07-12T09:09:26.997Z,78.4
2018-07-12T09:10:26.991Z,78.59
2018-07-12T09:11:27.244Z,77.44
2018-07-12T09:12:27.239Z,77.34
2018-07-12T09:13:27.239Z,77.25
2018-07-12T09:14:26.983Z,77.4
2018-07-12T09:15:27.240Z,77.69
2018-07-12T09:16:27.230Z,77.5
2018-07-12T09:17:27.228Z,78.36
2018-07-12T09:18:27.232Z,78.55
2018-07-12T09:19:27.224Z,78.75
2018-07-12T09:20:27.236Z,78.94
2018-07-12T09:21:27.216Z,78.65
2018-07-12T09:22:27.214Z,79.03
2018-07-12T09:23:27.209Z,79.03
2018-07-12T09:24:27.210Z,78.94
2018-07-12T09:25:27.635Z,79.13
2018-07-12T09:26:27.198Z,80.09
2018-07-12T09:27:27.219Z,79.9
2018-07-12T09:28:27.192Z,80.32
2018-07-12T09:29:27.201Z,79.94
2018-07-12T09:30:27.189Z,79.94
2018-07-12T09:31:27.191Z,80.51
2018-07-12T09:32:27.202Z,80.51
2018-07-12T09:33:27.395Z,80.8
2018-07-12T09:34:26.956Z,80.51
2018-07-12T09:35:27.217Z,79.79
2018-07-12T09:36:26.942Z,80.17
2018-07-12T09:37:27.185Z,80.17
2018-07-12T09:38:26.913Z,80.36
2018-07-12T09:39:27.192Z,79.79
2018-07-12T09:40:27.206Z,79.79
2018-07-12T09:41:27.161Z,79.4
2018-07-12T09:42:27.172Z,79.6
2018-07-12T09:43:26.900Z,79.02
2018-07-12T09:44:26.898Z,78.73
2018-07-12T09:45:27.146Z,78.06
2018-07-12T09:46:27.147Z,77.44
2018-07-12T09:47:27.251Z,76.96
2018-07-12T09:48:27.142Z,77.63
2018-07-12T09:49:27.270Z,78.3
2018-07-12T09:50:27.135Z,78.94
2018-07-12T09:51:27.135Z,78.88
2018-07-12T09:52:27.129Z,79.03
2018-07-12T09:53:27.124Z,79.13
2018-07-12T09:54:26.879Z,79.13
2018-07-12T09:55:27.139Z,79.28
2018-07-12T09:56:27.459Z,79.67
2018-07-12T09:57:27.117Z,79.67
2018-07-12T09:58:27.110Z,79.86
2018-07-12T09:59:26.854Z,80.73
2018-07-12T10:00:27.103Z,81.3
2018-07-12T10:01:27.105Z,81.4
2018-07-12T10:02:27.103Z,81.84
2018-07-12T10:03:26.848Z,82.03
2018-07-12T10:04:27.101Z,82.7
2018-07-12T10:05:27.093Z,82.79
2018-07-12T10:06:26.843Z,82.89
2018-07-12T10:07:27.082Z,83.18
2018-07-12T10:08:26.833Z,83.47
2018-07-12T10:09:27.071Z,83.75
2018-07-12T10:10:27.179Z,84.33
2018-07-12T10:11:27.070Z,84.23
2018-07-12T10:12:26.820Z,84.91
2018-07-12T10:13:27.063Z,85.1
2018-07-12T10:14:27.060Z,85.28
2018-07-12T10:15:27.097Z,85.38
2018-07-12T10:16:27.047Z,85.28
2018-07-12T10:17:27.047Z,86.05
2018-07-12T10:18:27.041Z,85.96
2018-07-12T10:19:26.799Z,86.05
2018-07-12T10:20:27.037Z,85.67
2018-07-12T10:21:27.063Z,85.86
2018-07-12T10:22:27.031Z,86.15
2018-07-12T10:23:27.021Z,85.86
2018-07-12T10:24:27.020Z,86.15
2018-07-12T10:25:27.014Z,85.96
2018-07-12T10:26:27.024Z,86.34
2018-07-12T10:27:27.258Z,85.96
2018-07-12T10:28:27.007Z,86.34
2018-07-12T10:29:26.754Z,86.44
2018-07-12T10:30:27.009Z,86.34
2018-07-12T10:31:26.998Z,86.63
2018-07-12T10:32:26.993Z,86.72
2018-07-12T10:33:27.012Z,86.63
2018-07-12T10:34:26.749Z,86.63
2018-07-12T10:35:26.979Z,87.01
2018-07-12T10:36:26.735Z,86.72
2018-07-12T10:37:26.971Z,86.82
2018-07-12T10:38:26.973Z,87.59
2018-07-12T10:39:26.712Z,87.73
2018-07-12T10:40:26.963Z,87.63
2018-07-12T10:41:26.958Z,86.96
2018-07-12T10:42:26.970Z,86.96
2018-07-12T10:43:26.955Z,86.87
2018-07-12T10:44:26.716Z,87.05
2018-07-12T10:45:26.944Z,87.15
2018-07-12T10:46:26.950Z,86.96
2018-07-12T10:47:26.945Z,86.96
2018-07-12T10:48:26.687Z,87.54
2018-07-12T10:49:26.693Z,87.92
2018-07-12T10:50:26.929Z,87.58
2018-07-12T10:51:26.936Z,87.77
2018-07-12T10:52:26.934Z,88.11
2018-07-12T10:53:26.670Z,88.06
2018-07-12T10:54:26.668Z,87.58
2018-07-12T10:55:26.915Z,87.77
2018-07-12T10:56:26.917Z,87.73
2018-07-12T10:57:26.914Z,87.68
2018-07-12T10:58:27.156Z,87.1
2018-07-12T10:59:26.908Z,87.54
2018-07-12T11:00:26.908Z,86.87
2018-07-12T11:01:26.902Z,87.05
2018-07-12T11:02:26.906Z,85.91
2018-07-12T11:03:26.894Z,85.52
2018-07-12T11:04:26.929Z,85.52
2018-07-12T11:05:26.897Z,85.33
2018-07-12T11:06:26.888Z,85.52
2018-07-12T11:07:26.628Z,85.24
2018-07-12T11:08:26.885Z,85.04
2018-07-12T11:09:26.623Z,85.42
2018-07-12T11:10:26.631Z,85.66
2018-07-12T11:11:26.870Z,85.66
2018-07-12T11:12:26.871Z,85.66
2018-07-12T11:13:26.864Z,85.85
2018-07-12T11:14:26.879Z,85.66
2018-07-12T11:15:26.858Z,85.28
2018-07-12T11:16:26.858Z,85.18
2018-07-12T11:17:26.611Z,84.99
2018-07-12T11:18:26.598Z,85.51
2018-07-12T11:19:26.847Z,84.41
2018-07-12T11:20:26.592Z,85.51
2018-07-12T11:21:26.841Z,85.03
2018-07-12T11:22:26.842Z,84.45
2018-07-12T11:23:26.838Z,84.45
2018-07-12T11:24:26.582Z,84.74
2018-07-12T11:25:26.837Z,84.45
2018-07-12T11:26:26.831Z,84.07
2018-07-12T11:27:26.827Z,83.87
2018-07-12T11:28:26.574Z,83.78
2018-07-12T11:29:26.577Z,83.69
2018-07-12T11:30:26.827Z,83.11
2018-07-12T11:31:26.825Z,82.73
2018-07-12T11:32:26.818Z,82.82
2018-07-12T11:33:26.819Z,82.63
2018-07-12T11:34:26.825Z,83.2
2018-07-12T11:35:26.837Z,82.82
2018-07-12T11:36:26.807Z,83.01
2018-07-12T11:37:26.835Z,82.63
2018-07-12T11:38:26.804Z,82.43
2018-07-12T11:39:26.573Z,81.76
2018-07-12T11:40:26.791Z,82.63
2018-07-12T11:41:26.797Z,81.76
2018-07-12T11:42:26.790Z,81.67
2018-07-12T11:43:26.803Z,81.96
2018-07-12T11:44:26.783Z,81.09
2018-07-12T11:45:26.796Z,81.48
2018-07-12T11:46:26.793Z,81.38
2018-07-12T11:47:26.798Z,81.09
2018-07-12T11:48:26.520Z,80.99
2018-07-12T11:49:26.519Z,80.9
2018-07-12T11:50:26.769Z,81.19
2018-07-12T11:51:26.767Z,81.09
2018-07-12T11:52:26.764Z,81.28
2018-07-12T11:53:26.763Z,81.67
2018-07-12T11:54:26.763Z,82.05
2018-07-12T11:55:26.756Z,82.43
2018-07-12T11:56:26.767Z,82.73
2018-07-12T11:57:26.768Z,82.63
2018-07-12T11:58:26.505Z,83.01
2018-07-12T11:59:26.499Z,82.82
2018-07-12T12:00:26.749Z,82.63
2018-07-12T12:01:27.019Z,82.53
2018-07-12T12:02:26.765Z,82.73
2018-07-12T12:03:26.750Z,83.2
2018-07-12T12:04:26.734Z,83.4
2018-07-12T12:05:27.016Z,83.44
2018-07-12T12:06:26.730Z,83.63
2018-07-12T12:07:26.738Z,83.83
2018-07-12T12:08:26.726Z,83.83
2018-07-12T12:09:26.466Z,83.83
2018-07-12T12:10:26.736Z,83.15
2018-07-12T12:11:26.469Z,82.67
2018-07-12T12:12:26.717Z,82.67
2018-07-12T12:13:26.712Z,83.53
2018-07-12T12:14:26.455Z,83.25
2018-07-12T12:15:26.724Z,83.53
2018-07-12T12:16:26.724Z,83.44
2018-07-12T12:17:26.698Z,83.25
2018-07-12T12:18:26.718Z,84.11
2018-07-12T12:19:26.880Z,83.92
2018-07-12T12:20:26.695Z,84.21
2018-07-12T12:21:26.692Z,83.92
2018-07-12T12:22:26.686Z,83.63
2018-07-12T12:23:26.684Z,83.25
2018-07-12T12:24:26.715Z,83.53
2018-07-12T12:25:26.681Z,83.58
2018-07-12T12:26:26.687Z,83.67
2018-07-12T12:27:26.800Z,83.77
2018-07-12T12:28:26.682Z,83.96
2018-07-12T12:29:26.685Z,83.96
2018-07-12T12:30:26.674Z,83.86
2018-07-12T12:31:26.417Z,83.86
2018-07-12T12:32:26.671Z,83.48
2018-07-12T12:33:26.695Z,83.19
2018-07-12T12:34:26.686Z,82.04
2018-07-12T12:35:26.665Z,81.65
2018-07-12T12:36:26.411Z,79.92
2018-07-12T12:37:26.654Z,79.79
2018-07-12T12:38:26.663Z,79.79
2018-07-12T12:39:26.659Z,80.17
2018-07-12T12:40:26.647Z,79.5
2018-07-12T12:41:26.644Z,80.17
2018-07-12T12:42:26.642Z,81.04
2018-07-12T12:43:26.642Z,81.07
2018-07-12T12:44:26.642Z,82.04
2018-07-12T12:45:26.387Z,82.46
2018-07-12T12:46:26.646Z,82.27
2018-07-12T12:47:26.656Z,82.27
2018-07-12T12:48:26.628Z,81.27
2018-07-12T12:49:26.632Z,81.27
2018-07-12T12:50:26.372Z,80.4
2018-07-12T12:51:26.373Z,79.53
2018-07-12T12:52:26.624Z,78.38
2018-07-12T12:53:26.627Z,79.44
2018-07-12T12:54:26.683Z,79.11